sensor_id;sensor_type;location;lat;lon;timestamp;pressure;altitude;pressure_sealevel;temperature;humidity
14594;BME280;7383;52.354;9.756;2022-10-30T00:00:55;-12777.31;;;18.60;100.00
14594;BME280;7383;52.354;9.756;2022-10-30T00:03:22;-12777.50;;;18.61;100.00
14594;BME280;7383;52.354;9.756;2022-10-30T00:05:49;-12777.56;;;18.61;100.00
14594;BME280;7383;52.354;9.756;2022-10-30T00:08:25;-12777.75;;;18.62;100.00
14594;BME280;7383;52.354;9.756;2022-10-30T00:10:51;-12777.50;;;18.61;100.00
14594;BME280;7383;52.354;9.756;2022-10-30T00:13:19;-12778.00;;;18.64;100.00
14594;BME280;7383;52.354;9.756;2022-10-30T00:15:47;-12778.34;;;18.66;100.00
14594;BME280;7383;52.354;9.756;2022-10-30T00:18:14;-12778.59;;;18.67;100.00
14594;BME280;7383;52.354;9.756;2022-10-30T00:20:40;-12778.34;;;18.66;100.00
14594;BME280;7383;52.354;9.756;2022-10-30T00:23:07;-12778.19;;;18.65;100.00
14594;BME280;7383;52.354;9.756;2022-10-30T00:25:35;-12778.53;;;18.67;100.00
14594;BME280;7383;52.354;9.756;2022-10-30T00:28:02;-12778.53;;;18.67;100.00
14594;BME280;7383;52.354;9.756;2022-10-30T00:30:28;-12778.69;;;18.68;100.00
14594;BME280;7383;52.354;9.756;2022-10-30T00:32:55;-12778.88;;;18.69;100.00
14594;BME280;7383;52.354;9.756;2022-10-30T00:35:22;-12779.03;;;18.70;100.00
14594;BME280;7383;52.354;9.756;2022-10-30T00:37:53;-12778.97;;;18.70;100.00
14594;BME280;7383;52.354;9.756;2022-10-30T00:40:23;-12778.59;;;18.67;100.00
14594;BME280;7383;52.354;9.756;2022-10-30T00:42:52;-12777.91;;;18.63;100.00
14594;BME280;7383;52.354;9.756;2022-10-30T00:45:20;-12777.22;;;18.59;100.00
14594;BME280;7383;52.354;9.756;2022-10-30T00:47:51;-12776.72;;;18.56;100.00
14594;BME280;7383;52.354;9.756;2022-10-30T00:50:27;-12776.28;;;18.54;100.00
14594;BME280;7383;52.354;9.756;2022-10-30T00:53:04;-12775.06;;;18.47;100.00
14594;BME280;7383;52.354;9.756;2022-10-30T00:55:37;-12774.72;;;18.45;100.00
14594;BME280;7383;52.354;9.756;2022-10-30T00:58:11;-12774.56;;;18.44;100.00
14594;BME280;7383;52.354;9.756;2022-10-30T01:00:42;-12774.66;;;18.44;100.00
14594;BME280;7383;52.354;9.756;2022-10-30T01:03:10;-12775.06;;;18.47;100.00
14594;BME280;7383;52.354;9.756;2022-10-30T01:05:37;-12775.50;;;18.49;100.00
14594;BME280;7383;52.354;9.756;2022-10-30T01:08:04;-12775.06;;;18.47;100.00
14594;BME280;7383;52.354;9.756;2022-10-30T01:10:31;-12775.00;;;18.46;100.00
14594;BME280;7383;52.354;9.756;2022-10-30T01:19:35;-12774.91;;;18.46;100.00
14594;BME280;7383;52.354;9.756;2022-10-30T01:22:37;-12775.16;;;18.47;100.00
14594;BME280;7383;52.354;9.756;2022-10-30T01:25:36;-12775.34;;;18.48;100.00
14594;BME280;7383;52.354;9.756;2022-10-30T01:28:16;-12775.34;;;18.48;100.00
14594;BME280;7383;52.354;9.756;2022-10-30T01:31:19;-12775.69;;;18.50;100.00
14594;BME280;7383;52.354;9.756;2022-10-30T01:34:05;-12775.41;;;18.49;100.00
14594;BME280;7383;52.354;9.756;2022-10-30T01:38:07;-12775.06;;;18.47;100.00
14594;BME280;7383;52.354;9.756;2022-10-30T01:43:20;-12775.06;;;18.47;100.00
14594;BME280;7383;52.354;9.756;2022-10-30T01:46:28;-12775.00;;;18.46;100.00
14594;BME280;7383;52.354;9.756;2022-10-30T01:50:02;-12775.06;;;18.47;100.00
14594;BME280;7383;52.354;9.756;2022-10-30T01:52:41;-12774.81;;;18.45;100.00
14594;BME280;7383;52.354;9.756;2022-10-30T01:55:31;-12774.56;;;18.44;100.00
14594;BME280;7383;52.354;9.756;2022-10-30T01:58:16;-12774.56;;;18.44;100.00
14594;BME280;7383;52.354;9.756;2022-10-30T02:33:41;-12773.19;;;18.36;100.00
14594;BME280;7383;52.354;9.756;2022-10-30T02:36:47;-12773.09;;;18.35;100.00
14594;BME280;7383;52.354;9.756;2022-10-30T02:39:17;-12772.84;;;18.34;100.00
14594;BME280;7383;52.354;9.756;2022-10-30T02:51:27;-12773.34;;;18.37;100.00
14594;BME280;7383;52.354;9.756;2022-10-30T02:57:49;-12773.44;;;18.37;100.00
14594;BME280;7383;52.354;9.756;2022-10-30T03:00:44;-12773.19;;;18.36;100.00
14594;BME280;7383;52.354;9.756;2022-10-30T03:14:13;-12772.31;;;18.31;100.00
14594;BME280;7383;52.354;9.756;2022-10-30T03:17:03;-12772.06;;;18.29;100.00
14594;BME280;7383;52.354;9.756;2022-10-30T03:40:09;-12771.09;;;18.24;100.00
14594;BME280;7383;52.354;9.756;2022-10-30T03:42:45;-12770.75;;;18.22;100.00
14594;BME280;7383;52.354;9.756;2022-10-30T03:45:12;-12770.94;;;18.23;100.00
14594;BME280;7383;52.354;9.756;2022-10-30T03:47:46;-12771.03;;;18.23;100.00
14594;BME280;7383;52.354;9.756;2022-10-30T03:56:59;-12770.50;;;18.20;100.00
14594;BME280;7383;52.354;9.756;2022-10-30T03:59:45;-12770.59;;;18.20;100.00
14594;BME280;7383;52.354;9.756;2022-10-30T04:02:27;-12770.84;;;18.22;100.00
14594;BME280;7383;52.354;9.756;2022-10-30T04:05:15;-12770.25;;;18.18;100.00
14594;BME280;7383;52.354;9.756;2022-10-30T04:08:09;-12769.72;;;18.15;100.00
14594;BME280;7383;52.354;9.756;2022-10-30T04:17:10;-12767.56;;;18.03;100.00
14594;BME280;7383;52.354;9.756;2022-10-30T04:20:20;-12767.41;;;18.02;100.00
14594;BME280;7383;52.354;9.756;2022-10-30T04:26:58;-12766.09;;;17.94;100.00
14594;BME280;7383;52.354;9.756;2022-10-30T04:29:36;-12765.94;;;17.93;100.00
14594;BME280;7383;52.354;9.756;2022-10-30T04:32:30;-12765.34;;;17.90;100.00
14594;BME280;7383;52.354;9.756;2022-10-30T04:34:57;-12764.72;;;17.86;100.00
14594;BME280;7383;52.354;9.756;2022-10-30T04:41:04;-12764.56;;;17.85;100.00
14594;BME280;7383;52.354;9.756;2022-10-30T04:54:23;-12763.59;;;17.80;100.00
14594;BME280;7383;52.354;9.756;2022-10-30T04:57:02;-12763.16;;;17.77;100.00
14594;BME280;7383;52.354;9.756;2022-10-30T05:00:37;-12763.69;;;17.80;100.00
14594;BME280;7383;52.354;9.756;2022-10-30T05:21:24;-12763.00;;;17.76;100.00
14594;BME280;7383;52.354;9.756;2022-10-30T05:23:32;-12762.75;;;17.75;100.00
14594;BME280;7383;52.354;9.756;2022-10-30T05:26:05;-12761.97;;;17.70;100.00
14594;BME280;7383;52.354;9.756;2022-10-30T05:32:10;-12761.19;;;17.65;100.00
14594;BME280;7383;52.354;9.756;2022-10-30T05:34:57;-12760.41;;;17.61;100.00
14594;BME280;7383;52.354;9.756;2022-10-30T05:37:36;-12760.59;;;17.62;100.00
14594;BME280;7383;52.354;9.756;2022-10-30T05:43:46;-12759.19;;;17.54;100.00
14594;BME280;7383;52.354;9.756;2022-10-30T05:46:24;-12759.28;;;17.54;100.00
14594;BME280;7383;52.354;9.756;2022-10-30T06:19:15;-12758.84;;;17.52;100.00
14594;BME280;7383;52.354;9.756;2022-10-30T06:29:05;-12758.00;;;17.47;100.00
14594;BME280;7383;52.354;9.756;2022-10-30T06:31:35;-12757.72;;;17.45;100.00
14594;BME280;7383;52.354;9.756;2022-10-30T06:34:02;-12758.06;;;17.47;100.00
14594;BME280;7383;52.354;9.756;2022-10-30T06:36:35;-12757.47;;;17.44;100.00
14594;BME280;7383;52.354;9.756;2022-10-30T06:39:19;-12757.31;;;17.43;100.00
14594;BME280;7383;52.354;9.756;2022-10-30T06:44:53;-12756.59;;;17.39;100.00
14594;BME280;7383;52.354;9.756;2022-10-30T07:14:02;-12756.88;;;17.40;100.00
14594;BME280;7383;52.354;9.756;2022-10-30T07:16:28;-12757.22;;;17.42;100.00
14594;BME280;7383;52.354;9.756;2022-10-30T07:18:55;-12757.22;;;17.42;100.00
14594;BME280;7383;52.354;9.756;2022-10-30T07:21:22;-12757.56;;;17.44;100.00
14594;BME280;7383;52.354;9.756;2022-10-30T07:23:48;-12757.91;;;17.46;100.00
14594;BME280;7383;52.354;9.756;2022-10-30T07:26:14;-12758.34;;;17.49;100.00
14594;BME280;7383;52.354;9.756;2022-10-30T07:28:41;-12758.59;;;17.50;100.00
14594;BME280;7383;52.354;9.756;2022-10-30T07:31:09;-12758.84;;;17.52;100.00
14594;BME280;7383;52.354;9.756;2022-10-30T07:33:35;-12759.28;;;17.54;100.00
14594;BME280;7383;52.354;9.756;2022-10-30T07:36:02;-12760.06;;;17.59;100.00
14594;BME280;7383;52.354;9.756;2022-10-30T07:38:28;-12760.31;;;17.60;100.00
14594;BME280;7383;52.354;9.756;2022-10-30T07:40:55;-12760.84;;;17.63;100.00
14594;BME280;7383;52.354;9.756;2022-10-30T07:43:21;-12761.63;;;17.68;100.00
14594;BME280;7383;52.354;9.756;2022-10-30T07:45:48;-12761.97;;;17.70;100.00
14594;BME280;7383;52.354;9.756;2022-10-30T07:48:16;-12762.22;;;17.72;100.00
14594;BME280;7383;52.354;9.756;2022-10-30T07:50:42;-12763.16;;;17.77;100.00
14594;BME280;7383;52.354;9.756;2022-10-30T07:53:09;-12763.69;;;17.80;100.00
14594;BME280;7383;52.354;9.756;2022-10-30T07:55:35;-12764.91;;;17.87;100.00
14594;BME280;7383;52.354;9.756;2022-10-30T07:58:02;-12765.84;;;17.93;100.00
14594;BME280;7383;52.354;9.756;2022-10-30T08:00:28;-12766.28;;;17.95;100.00
14594;BME280;7383;52.354;9.756;2022-10-30T08:02:55;-12766.72;;;17.98;100.00
14594;BME280;7383;52.354;9.756;2022-10-30T08:05:23;-12767.16;;;18.00;100.00
14594;BME280;7383;52.354;9.756;2022-10-30T08:07:50;-12767.41;;;18.02;100.00
14594;BME280;7383;52.354;9.756;2022-10-30T08:10:17;-12767.84;;;18.04;100.00
14594;BME280;7383;52.354;9.756;2022-10-30T08:12:43;-12768.09;;;18.06;100.00
14594;BME280;7383;52.354;9.756;2022-10-30T08:15:12;-12768.59;;;18.09;100.00
14594;BME280;7383;52.354;9.756;2022-10-30T08:17:42;-12769.38;;;18.13;100.00
14594;BME280;7383;52.354;9.756;2022-10-30T08:20:13;-12769.81;;;18.16;100.00
14594;BME280;7383;52.354;9.756;2022-10-30T08:22:45;-12770.69;;;18.21;100.00
14594;BME280;7383;52.354;9.756;2022-10-30T08:25:12;-12770.84;;;18.22;100.00
14594;BME280;7383;52.354;9.756;2022-10-30T08:27:39;-12771.28;;;18.25;100.00
14594;BME280;7383;52.354;9.756;2022-10-30T08:30:07;-12771.97;;;18.29;100.00
14594;BME280;7383;52.354;9.756;2022-10-30T08:32:33;-12772.50;;;18.32;100.00
14594;BME280;7383;52.354;9.756;2022-10-30T08:35:00;-12773.19;;;18.36;100.00
14594;BME280;7383;52.354;9.756;2022-10-30T08:37:26;-12773.53;;;18.38;100.00
14594;BME280;7383;52.354;9.756;2022-10-30T08:39:54;-12774.31;;;18.42;100.00
14594;BME280;7383;52.354;9.756;2022-10-30T08:42:21;-12774.81;;;18.45;100.00
14594;BME280;7383;52.354;9.756;2022-10-30T08:44:47;-12775.00;;;18.46;100.00
14594;BME280;7383;52.354;9.756;2022-10-30T08:47:14;-12775.25;;;18.48;100.00
14594;BME280;7383;52.354;9.756;2022-10-30T08:49:40;-12775.59;;;18.50;100.00
14594;BME280;7383;52.354;9.756;2022-10-30T08:52:07;-12776.47;;;18.55;100.00
14594;BME280;7383;52.354;9.756;2022-10-30T08:54:33;-12776.97;;;18.58;100.00
14594;BME280;7383;52.354;9.756;2022-10-30T08:57:02;-12777.56;;;18.61;100.00
14594;BME280;7383;52.354;9.756;2022-10-30T08:59:28;-12777.91;;;18.63;100.00
14594;BME280;7383;52.354;9.756;2022-10-30T09:01:55;-12778.53;;;18.67;100.00
14594;BME280;7383;52.354;9.756;2022-10-30T09:04:21;-12779.13;;;18.71;100.00
14594;BME280;7383;52.354;9.756;2022-10-30T09:06:48;-12779.47;;;18.73;100.00
14594;BME280;7383;52.354;9.756;2022-10-30T09:09:14;-12780.06;;;18.76;100.00
14594;BME280;7383;52.354;9.756;2022-10-30T09:11:41;-12780.75;;;18.80;100.00
14594;BME280;7383;52.354;9.756;2022-10-30T09:14:09;-12781.19;;;18.83;100.00
14594;BME280;7383;52.354;9.756;2022-10-30T09:16:38;-12782.06;;;18.88;100.00
14594;BME280;7383;52.354;9.756;2022-10-30T09:19:04;-12782.66;;;18.91;100.00
14594;BME280;7383;52.354;9.756;2022-10-30T09:21:31;-12783.44;;;18.96;100.00
14594;BME280;7383;52.354;9.756;2022-10-30T09:23:59;-12784.63;;;19.03;100.00
14594;BME280;7383;52.354;9.756;2022-10-30T09:26:26;-12785.06;;;19.05;100.00
14594;BME280;7383;52.354;9.756;2022-10-30T09:28:52;-12785.59;;;19.08;100.00
14594;BME280;7383;52.354;9.756;2022-10-30T09:31:20;-12786.44;;;19.13;100.00
14594;BME280;7383;52.354;9.756;2022-10-30T09:33:46;-12787.22;;;19.18;100.00
14594;BME280;7383;52.354;9.756;2022-10-30T09:36:13;-12787.91;;;19.22;100.00
14594;BME280;7383;52.354;9.756;2022-10-30T09:38:39;-12788.94;;;19.28;100.00
14594;BME280;7383;52.354;9.756;2022-10-30T09:41:29;-12790.16;;;19.35;100.00
14594;BME280;7383;52.354;9.756;2022-10-30T09:44:07;-12790.22;;;19.36;100.00
14594;BME280;7383;52.354;9.756;2022-10-30T09:46:49;-12790.59;;;19.38;100.00
14594;BME280;7383;52.354;9.756;2022-10-30T09:49:34;-12790.75;;;19.39;100.00
14594;BME280;7383;52.354;9.756;2022-10-30T09:52:19;-12791.28;;;19.42;100.00
14594;BME280;7383;52.354;9.756;2022-10-30T09:54:55;-12791.78;;;19.45;100.00
14594;BME280;7383;52.354;9.756;2022-10-30T09:57:32;-12792.38;;;19.48;100.00
14594;BME280;7383;52.354;9.756;2022-10-30T10:00:04;-12793.50;;;19.55;100.00
14594;BME280;7383;52.354;9.756;2022-10-30T10:02:37;-12794.13;;;19.58;100.00
14594;BME280;7383;52.354;9.756;2022-10-30T10:05:13;-12794.88;;;19.63;100.00
14594;BME280;7383;52.354;9.756;2022-10-30T10:07:46;-12795.22;;;19.65;100.00
14594;BME280;7383;52.354;9.756;2022-10-30T10:10:18;-12796.00;;;19.70;100.00
14594;BME280;7383;52.354;9.756;2022-10-30T10:12:48;-12796.69;;;19.74;100.00
14594;BME280;7383;52.354;9.756;2022-10-30T10:15:20;-12797.47;;;19.78;100.00
14594;BME280;7383;52.354;9.756;2022-10-30T10:17:51;-12797.81;;;19.80;100.00
14594;BME280;7383;52.354;9.756;2022-10-30T10:20:26;-12799.09;;;19.88;100.00
14594;BME280;7383;52.354;9.756;2022-10-30T10:22:56;-12799.63;;;19.91;100.00
14594;BME280;7383;52.354;9.756;2022-10-30T10:25:25;-12800.22;;;19.94;100.00
14594;BME280;7383;52.354;9.756;2022-10-30T10:28:01;-12801.25;;;20.00;100.00
14594;BME280;7383;52.354;9.756;2022-10-30T10:30:39;-12802.53;;;20.08;100.00
14594;BME280;7383;52.354;9.756;2022-10-30T10:33:25;-12803.66;;;20.14;100.00
14594;BME280;7383;52.354;9.756;2022-10-30T10:36:03;-12805.13;;;20.23;100.00
14594;BME280;7383;52.354;9.756;2022-10-30T10:38:42;-12806.75;;;20.33;100.00
14594;BME280;7383;52.354;9.756;2022-10-30T10:41:17;-12807.78;;;20.39;100.00
14594;BME280;7383;52.354;9.756;2022-10-30T10:44:04;-12809.94;;;20.51;100.00
14594;BME280;7383;52.354;9.756;2022-10-30T10:46:47;-12812.59;;;20.67;100.00
14594;BME280;7383;52.354;9.756;2022-10-30T10:49:27;-12815.94;;;20.87;100.00
14594;BME280;7383;52.354;9.756;2022-10-30T10:51:59;-12818.84;;;21.04;100.00
14594;BME280;7383;52.354;9.756;2022-10-30T10:54:30;-12822.03;;;21.23;100.00
14594;BME280;7383;52.354;9.756;2022-10-30T10:57:04;-12825.38;;;21.42;100.00
14594;BME280;7383;52.354;9.756;2022-10-30T10:59:35;-12828.81;;;21.63;100.00
14594;BME280;7383;52.354;9.756;2022-10-30T11:02:23;-12832.75;;;21.86;100.00
14594;BME280;7383;52.354;9.756;2022-10-30T11:04:59;-12836.25;;;22.06;100.00
14594;BME280;7383;52.354;9.756;2022-10-30T11:07:32;-12839.34;;;22.25;100.00
14594;BME280;7383;52.354;9.756;2022-10-30T11:09:59;-12841.50;;;22.37;100.00
14594;BME280;7383;52.354;9.756;2022-10-30T11:12:27;-12845.84;;;22.63;100.00
14594;BME280;7383;52.354;9.756;2022-10-30T11:14:54;-12850.97;;;22.93;100.00
14594;BME280;7383;52.354;9.756;2022-10-30T11:17:24;-12855.94;;;23.23;100.00
14594;BME280;7383;52.354;9.756;2022-10-30T11:19:58;-12862.94;;;23.64;100.00
14594;BME280;7383;52.354;9.756;2022-10-30T11:22:30;-12867.13;;;23.89;100.00
14594;BME280;7383;52.354;9.756;2022-10-30T11:25:17;-12873.09;;;24.24;100.00
14594;BME280;7383;52.354;9.756;2022-10-30T11:27:45;-12905.72;;;26.18;100.00
14594;BME280;7383;52.354;9.756;2022-10-30T11:30:17;-12939.81;;;28.21;100.00
14594;BME280;7383;52.354;9.756;2022-10-30T11:32:44;-12964.25;;;29.67;100.00
14594;BME280;7383;52.354;9.756;2022-10-30T11:35:14;-12986.75;;;31.02;100.00
14594;BME280;7383;52.354;9.756;2022-10-30T11:37:43;-13006.59;;;32.21;100.00
14594;BME280;7383;52.354;9.756;2022-10-30T11:40:16;-13026.72;;;33.42;100.00
14594;BME280;7383;52.354;9.756;2022-10-30T11:42:45;-13039.09;;;34.17;100.00
14594;BME280;7383;52.354;9.756;2022-10-30T11:45:14;-13053.03;;;35.01;100.00
14594;BME280;7383;52.354;9.756;2022-10-30T11:47:42;-13062.72;;;35.60;100.00
14594;BME280;7383;52.354;9.756;2022-10-30T11:50:17;-13070.28;;;36.06;100.00
14594;BME280;7383;52.354;9.756;2022-10-30T11:52:47;-13076.53;;;36.44;100.00
14594;BME280;7383;52.354;9.756;2022-10-30T11:55:17;-13085.69;;;36.99;100.00
14594;BME280;7383;52.354;9.756;2022-10-30T11:57:47;-13099.69;;;37.85;100.00
14594;BME280;7383;52.354;9.756;2022-10-30T12:00:17;-13105.66;;;38.21;100.00
14594;BME280;7383;52.354;9.756;2022-10-30T12:02:45;-13114.38;;;38.74;100.00
14594;BME280;7383;52.354;9.756;2022-10-30T12:05:32;-13121.88;;;39.20;100.00
14594;BME280;7383;52.354;9.756;2022-10-30T12:08:26;-13130.91;;;39.75;100.00
14594;BME280;7383;52.354;9.756;2022-10-30T12:10:56;-13135.34;;;40.03;100.00
14594;BME280;7383;52.354;9.756;2022-10-30T12:13:24;-13130.16;;;39.71;100.00
14594;BME280;7383;52.354;9.756;2022-10-30T12:16:07;-13133.19;;;39.90;100.00
14594;BME280;7383;52.354;9.756;2022-10-30T12:18:34;-13131.31;;;39.78;100.00
14594;BME280;7383;52.354;9.756;2022-10-30T12:21:02;-13138.41;;;40.21;100.00
14594;BME280;7383;52.354;9.756;2022-10-30T12:23:30;-13133.69;;;39.93;100.00
14594;BME280;7383;52.354;9.756;2022-10-30T12:25:59;-13141.13;;;40.38;100.00
14594;BME280;7383;52.354;9.756;2022-10-30T12:28:27;-13151.16;;;41.00;100.00
14594;BME280;7383;52.354;9.756;2022-10-30T12:30:57;-13152.66;;;41.09;100.00
14594;BME280;7383;52.354;9.756;2022-10-30T12:33:28;-13152.31;;;41.07;100.00
14594;BME280;7383;52.354;9.756;2022-10-30T12:35:58;-13144.84;;;40.61;100.00
14594;BME280;7383;52.354;9.756;2022-10-30T12:38:29;-13129.81;;;39.69;100.00
14594;BME280;7383;52.354;9.756;2022-10-30T12:41:04;-13115.44;;;38.81;100.00
14594;BME280;7383;52.354;9.756;2022-10-30T12:43:33;-13093.56;;;37.47;100.00
14594;BME280;7383;52.354;9.756;2022-10-30T12:46:15;-13066.63;;;35.84;100.00
14594;BME280;7383;52.354;9.756;2022-10-30T12:48:49;-13042.59;;;34.38;100.00
14594;BME280;7383;52.354;9.756;2022-10-30T12:51:21;-13028.47;;;33.53;100.00
14594;BME280;7383;52.354;9.756;2022-10-30T12:53:58;-13010.44;;;32.44;100.00
14594;BME280;7383;52.354;9.756;2022-10-30T12:56:30;-12994.06;;;31.46;100.00
14594;BME280;7383;52.354;9.756;2022-10-30T12:59:07;-12977.75;;;30.48;100.00
14594;BME280;7383;52.354;9.756;2022-10-30T13:01:40;-12967.72;;;29.88;100.00
14594;BME280;7383;52.354;9.756;2022-10-30T13:04:14;-12959.44;;;29.38;100.00
14594;BME280;7383;52.354;9.756;2022-10-30T13:06:48;-12950.47;;;28.84;100.00
14594;BME280;7383;52.354;9.756;2022-10-30T13:09:20;-12946.41;;;28.60;100.00
14594;BME280;7383;52.354;9.756;2022-10-30T13:14:30;-12938.81;;;28.15;100.00
14594;BME280;7383;52.354;9.756;2022-10-30T13:16:59;-12932.28;;;27.76;100.00
14594;BME280;7383;52.354;9.756;2022-10-30T13:19:26;-12927.38;;;27.47;100.00
14594;BME280;7383;52.354;9.756;2022-10-30T13:21:58;-12921.59;;;27.12;100.00
14594;BME280;7383;52.354;9.756;2022-10-30T13:24:36;-12919.13;;;26.98;100.00
14594;BME280;7383;52.354;9.756;2022-10-30T13:27:09;-12917.69;;;26.89;100.00
14594;BME280;7383;52.354;9.756;2022-10-30T13:29:44;-12916.09;;;26.79;100.00
14594;BME280;7383;52.354;9.756;2022-10-30T13:32:24;-12913.78;;;26.66;100.00
14594;BME280;7383;52.354;9.756;2022-10-30T13:35:00;-12912.34;;;26.57;100.00
14594;BME280;7383;52.354;9.756;2022-10-30T13:37:35;-12910.91;;;26.49;100.00
14594;BME280;7383;52.354;9.756;2022-10-30T13:40:13;-12907.00;;;26.25;100.00
14594;BME280;7383;52.354;9.756;2022-10-30T13:42:56;-12902.56;;;25.99;100.00
14594;BME280;7383;52.354;9.756;2022-10-30T13:45:41;-12904.34;;;26.10;100.00
14594;BME280;7383;52.354;9.756;2022-10-30T13:48:18;-12906.06;;;26.20;100.00
14594;BME280;7383;52.354;9.756;2022-10-30T13:51:05;-12907.25;;;26.27;100.00
14594;BME280;7383;52.354;9.756;2022-10-30T13:53:37;-12907.94;;;26.31;100.00
14594;BME280;7383;52.354;9.756;2022-10-30T13:56:11;-12910.72;;;26.48;100.00
14594;BME280;7383;52.354;9.756;2022-10-30T13:58:44;-12914.91;;;26.72;100.00
14594;BME280;7383;52.354;9.756;2022-10-30T14:01:16;-12912.50;;;26.58;100.00
14594;BME280;7383;52.354;9.756;2022-10-30T14:03:48;-12909.88;;;26.42;100.00
14594;BME280;7383;52.354;9.756;2022-10-30T14:06:25;-12907.41;;;26.28;100.00
14594;BME280;7383;52.354;9.756;2022-10-30T14:09:04;-12904.88;;;26.13;100.00
14594;BME280;7383;52.354;9.756;2022-10-30T14:11:33;-12901.03;;;25.90;100.00
14594;BME280;7383;52.354;9.756;2022-10-30T14:14:03;-12899.59;;;25.81;100.00
14594;BME280;7383;52.354;9.756;2022-10-30T14:16:37;-12897.72;;;25.70;100.00
14594;BME280;7383;52.354;9.756;2022-10-30T14:19:06;-12896.53;;;25.63;100.00
14594;BME280;7383;52.354;9.756;2022-10-30T14:21:39;-12895.25;;;25.56;100.00
14594;BME280;7383;52.354;9.756;2022-10-30T14:24:17;-12893.63;;;25.46;100.00
14594;BME280;7383;52.354;9.756;2022-10-30T14:26:50;-12891.44;;;25.33;100.00
14594;BME280;7383;52.354;9.756;2022-10-30T14:29:37;-12889.47;;;25.21;100.00
14594;BME280;7383;52.354;9.756;2022-10-30T14:35:33;-12884.28;;;24.90;100.00
14594;BME280;7383;52.354;9.756;2022-10-30T14:38:33;-12882.66;;;24.81;100.00
14594;BME280;7383;52.354;9.756;2022-10-30T14:44:11;-12878.13;;;24.54;100.00
14594;BME280;7383;52.354;9.756;2022-10-30T14:46:44;-12876.84;;;24.46;100.00
14594;BME280;7383;52.354;9.756;2022-10-30T14:49:36;-12875.75;;;24.40;100.00
14594;BME280;7383;52.354;9.756;2022-10-30T14:52:16;-12874.03;;;24.30;100.00
14594;BME280;7383;52.354;9.756;2022-10-30T14:54:48;-12872.34;;;24.20;100.00
14594;BME280;7383;52.354;9.756;2022-10-30T14:57:20;-12871.41;;;24.14;100.00
14594;BME280;7383;52.354;9.756;2022-10-30T15:00:28;-12870.38;;;24.08;100.00
14594;BME280;7383;52.354;9.756;2022-10-30T15:02:56;-12868.06;;;23.94;100.00
14594;BME280;7383;52.354;9.756;2022-10-30T15:05:40;-12867.38;;;23.90;100.00
14594;BME280;7383;52.354;9.756;2022-10-30T15:08:22;-12866.03;;;23.82;100.00
14594;BME280;7383;52.354;9.756;2022-10-30T15:11:06;-12864.75;;;23.75;100.00
14594;BME280;7383;52.354;9.756;2022-10-30T15:13:36;-12863.03;;;23.65;100.00
14594;BME280;7383;52.354;9.756;2022-10-30T15:16:07;-12861.84;;;23.58;100.00
14594;BME280;7383;52.354;9.756;2022-10-30T15:18:34;-12860.72;;;23.51;100.00
14594;BME280;7383;52.354;9.756;2022-10-30T15:21:03;-12859.69;;;23.45;100.00
14594;BME280;7383;52.354;9.756;2022-10-30T15:23:31;-12858.94;;;23.40;100.00
14594;BME280;7383;52.354;9.756;2022-10-30T15:26:03;-12857.81;;;23.34;100.00
14594;BME280;7383;52.354;9.756;2022-10-30T15:28:32;-12856.47;;;23.26;100.00
14594;BME280;7383;52.354;9.756;2022-10-30T15:31:01;-12855.09;;;23.18;100.00
14594;BME280;7383;52.354;9.756;2022-10-30T15:33:30;-12854.06;;;23.12;100.00
14594;BME280;7383;52.354;9.756;2022-10-30T15:35:57;-12852.44;;;23.02;100.00
14594;BME280;7383;52.354;9.756;2022-10-30T15:38:24;-12850.66;;;22.91;100.00
14594;BME280;7383;52.354;9.756;2022-10-30T15:40:55;-12849.78;;;22.86;100.00
14594;BME280;7383;52.354;9.756;2022-10-30T15:43:24;-12847.91;;;22.75;100.00
14594;BME280;7383;52.354;9.756;2022-10-30T15:45:53;-12846.28;;;22.66;100.00
14594;BME280;7383;52.354;9.756;2022-10-30T15:48:23;-12845.16;;;22.59;100.00
14594;BME280;7383;52.354;9.756;2022-10-30T15:50:57;-12843.28;;;22.48;100.00
14594;BME280;7383;52.354;9.756;2022-10-30T15:53:33;-12842.09;;;22.41;100.00
14594;BME280;7383;52.354;9.756;2022-10-30T15:56:02;-12840.63;;;22.32;100.00
14594;BME280;7383;52.354;9.756;2022-10-30T15:58:30;-12839.44;;;22.25;100.00
14594;BME280;7383;52.354;9.756;2022-10-30T16:01:00;-12838.16;;;22.18;100.00
14594;BME280;7383;52.354;9.756;2022-10-30T16:03:27;-12837.47;;;22.14;100.00
14594;BME280;7383;52.354;9.756;2022-10-30T16:06:12;-12836.25;;;22.06;100.00
14594;BME280;7383;52.354;9.756;2022-10-30T16:08:45;-12835.41;;;22.01;100.00
14594;BME280;7383;52.354;9.756;2022-10-30T16:11:12;-12834.13;;;21.94;100.00
14594;BME280;7383;52.354;9.756;2022-10-30T16:13:40;-12833.34;;;21.89;100.00
14594;BME280;7383;52.354;9.756;2022-10-30T16:16:11;-12831.91;;;21.81;100.00
14594;BME280;7383;52.354;9.756;2022-10-30T16:18:39;-12831.22;;;21.77;100.00
14594;BME280;7383;52.354;9.756;2022-10-30T16:21:09;-12830.19;;;21.71;100.00
14594;BME280;7383;52.354;9.756;2022-10-30T16:23:47;-12829.50;;;21.67;100.00
14594;BME280;7383;52.354;9.756;2022-10-30T16:26:25;-12828.47;;;21.60;100.00
14594;BME280;7383;52.354;9.756;2022-10-30T16:28:54;-12827.09;;;21.52;100.00
14594;BME280;7383;52.354;9.756;2022-10-30T16:31:21;-12826.25;;;21.47;100.00
14594;BME280;7383;52.354;9.756;2022-10-30T16:33:49;-12824.94;;;21.40;100.00
14594;BME280;7383;52.354;9.756;2022-10-30T16:36:18;-12823.31;;;21.30;100.00
14594;BME280;7383;52.354;9.756;2022-10-30T16:38:46;-12822.13;;;21.23;100.00
14594;BME280;7383;52.354;9.756;2022-10-30T16:41:13;-12821.69;;;21.21;100.00
14594;BME280;7383;52.354;9.756;2022-10-30T16:43:42;-12821.34;;;21.19;100.00
14594;BME280;7383;52.354;9.756;2022-10-30T16:46:34;-12820.84;;;21.16;100.00
14594;BME280;7383;52.354;9.756;2022-10-30T16:49:06;-12819.81;;;21.09;100.00
14594;BME280;7383;52.354;9.756;2022-10-30T16:51:38;-12819.03;;;21.05;100.00
14594;BME280;7383;52.354;9.756;2022-10-30T16:54:12;-12818.00;;;20.99;100.00
14594;BME280;7383;52.354;9.756;2022-10-30T16:56:44;-12817.22;;;20.94;100.00
14594;BME280;7383;52.354;9.756;2022-10-30T16:59:14;-12816.97;;;20.93;100.00
14594;BME280;7383;52.354;9.756;2022-10-30T17:01:42;-12816.03;;;20.87;100.00
14594;BME280;7383;52.354;9.756;2022-10-30T17:04:12;-12815.25;;;20.83;100.00